Etusivu
METAR-TAF:

METAR-TAF

Lentoasemat :

Wadena Municipal Airport

Wadena, Minnesota, Yhdysvallat

Leveyspiiri: 46-27-01N, Pituuspiiri: 095-12-39W, korkeus merenpinnasta: 417 m

Tämänhetkinen sää

Tämä raportti tehtiin 29 minuuttia sitten, kello 10.15 UTC
Tuuli 4 kn lännestä/luoteesta
Lämpötila 1°C
Kosteus 86%
Ilmanpaine 1017 hPa
Näkyvyys: 16.1 km
selkeää

METAR: KADC 261015Z AUTO 29004KT 10SM CLR 01/M01 A3004 RMK AO2

Aika: 05:44 (10:44 UTC)


TAF: puuttuu

Säähavainnot ja -ennusteet yli 4000 lentoasemalta (METAR- ja TAF-raportit).

Käytössä olevat sääasemat on merkitty karttaan keltaisilla ja punaisilla pisteillä.

Aseta hiiri pisteen päälle nähdäksesi sääaseman nimen.

Klikkaa sitten nähdäksesi säähavainnot ja -ennusteet.

Kartan vaihtaminen: klikkaa mustalla rastilla varustettuja vihreitä pisteitä, niin voit zoomata sisään; viivalla varustettua vihreää pistettä, niin voit zoomata ulos tai vihreitä nuolia, niin pääset viereisille kartoille.


METAR-TAF: